This is the latest recevied weather packets stored in our database for station/object WG5EEK. If no packets are shown the sender has not sent any weather packets the latest 10 day(s).
| Time | Temp. | Humidity | Pressure | Rain* | Wind** | Luminosity | Snow |
|---|---|---|---|---|---|---|---|
| 1777879441 | 21.11° C | 60% | 973.9 hPa | - | - | - | - |
| 1777876227 | 21.67° C | 59% | 974 hPa | - | - | - | - |
| 1777875482 | 21.67° C | 60% | 974 hPa | - | - | - | - |
| 1777874041 | 21.67° C | 61% | 973.9 hPa | - | - | - | - |
| 1777872602 | 22.22° C | 61% | 973.7 hPa | - | - | - | - |
| 1777869362 | 22.78° C | 59% | 972.9 hPa | - | - | - | - |
| 1777866842 | 22.78° C | 58% | 972.5 hPa | - | - | - | - |
| 1777866121 | 22.78° C | 58% | 972.6 hPa | - | - | - | - |
| 1777864321 | 23.33° C | 58% | 972 hPa | - | - | - | - |
| 1777863963 | 23.33° C | 58% | 972 hPa | - | - | - | - |
| 1777863242 | 23.33° C | 58% | 971.7 hPa | - | - | - | - |
| 1777862523 | 23.89° C | 57% | 971.3 hPa | - | - | - | - |
| 1777860721 | 23.89° C | 57% | 970.5 hPa | - | - | - | - |
| 1777860362 | 24.44° C | 57% | 970.4 hPa | - | - | - | - |
| 1777858563 | 25° C | 55% | 969.2 hPa | - | - | - | - |
| 1777854242 | 26.11° C | 51% | 966.8 hPa | - | - | - | - |
| 1777852802 | 27.22° C | 48% | 965.8 hPa | - | - | - | - |
| 1777849563 | 27.78° C | 45% | 965.4 hPa | - | - | - | - |
| 1777849201 | 27.78° C | 43% | 965.2 hPa | - | - | - | - |
| 1777848842 | 27.78° C | 44% | 965.1 hPa | - | - | - | - |
| 1777847762 | 27.78° C | 47% | 965 hPa | - | - | - | - |
| 1777847402 | 27.78° C | 50% | 965.2 hPa | - | - | - | - |
| 1777845627 | 27.78° C | 51% | 965.2 hPa | - | - | - | - |
| 1777843801 | 27.78° C | 52% | 965.8 hPa | - | - | - | - |
| 1777843082 | 27.22° C | 51% | 966.6 hPa | - | - | - | - |
* Rain since midnight (hover to see other rain measurements)
** Current wind speed in m/s (hover to see current wind gust speed)